createdAt,value
2023-04-09T00:01:38.241Z,6.52
2023-04-09T00:04:43.360Z,6.54
2023-04-09T00:07:46.944Z,6.51
2023-04-09T00:10:50.507Z,6.52
2023-04-09T00:13:54.046Z,6.50
2023-04-09T00:16:57.610Z,6.53
2023-04-09T00:20:02.491Z,6.59
2023-04-09T00:23:06.166Z,6.65
2023-04-09T00:26:09.981Z,6.55
2023-04-09T00:29:13.523Z,6.51
2023-04-09T00:32:17.284Z,6.52
2023-04-09T00:35:22.539Z,6.57
2023-04-09T00:38:26.026Z,6.56
2023-04-09T00:41:29.640Z,6.53
2023-04-09T00:44:33.242Z,6.56
2023-04-09T00:47:37.487Z,6.60
2023-04-09T00:50:43.165Z,6.55
2023-04-09T00:53:47.693Z,6.57
2023-04-09T00:56:51.590Z,6.53
2023-04-09T00:59:55.287Z,6.56
2023-04-09T01:03:01.040Z,6.54
2023-04-09T01:06:16.564Z,6.51
2023-04-09T01:09:28.901Z,6.48
2023-04-09T01:12:40.084Z,6.50
2023-04-09T01:15:53.579Z,6.51
2023-04-09T01:19:08.141Z,6.42
2023-04-09T01:22:57.756Z,6.46
2023-04-09T01:26:08.692Z,6.52
2023-04-09T01:29:18.713Z,6.57
2023-04-09T01:32:24.768Z,6.49
2023-04-09T01:35:30.210Z,6.56
2023-04-09T01:38:36.966Z,6.49
2023-04-09T01:41:42.575Z,6.43
2023-04-09T01:44:48.389Z,6.44
2023-04-09T01:47:52.920Z,6.41
2023-04-09T01:50:57.248Z,6.39
2023-04-09T01:54:01.058Z,6.39
2023-04-09T01:57:04.659Z,6.41
2023-04-09T02:00:13.040Z,6.35
2023-04-09T02:03:23.233Z,6.35
2023-04-09T02:06:38.144Z,6.29
2023-04-09T02:09:44.382Z,6.30
2023-04-09T02:12:52.593Z,6.29
2023-04-09T02:16:00.862Z,6.32
2023-04-09T02:19:04.533Z,6.28
2023-04-09T02:22:08.128Z,6.30
2023-04-09T02:25:11.681Z,6.26
2023-04-09T02:28:15.480Z,6.31
2023-04-09T02:31:20.445Z,6.39
2023-04-09T02:34:24.543Z,6.37
2023-04-09T02:37:28.056Z,6.41
2023-04-09T02:40:31.741Z,6.34
2023-04-09T02:43:35.485Z,6.34
2023-04-09T02:46:41.083Z,6.36
2023-04-09T02:49:44.650Z,6.29
2023-04-09T02:52:48.696Z,6.27
2023-04-09T02:55:52.321Z,6.29
2023-04-09T02:58:55.878Z,6.26
2023-04-09T03:02:00.913Z,6.27
2023-04-09T03:05:04.929Z,6.30
2023-04-09T03:08:08.517Z,6.31
2023-04-09T03:11:12.027Z,6.38
2023-04-09T03:14:15.571Z,6.30
2023-04-09T03:17:20.496Z,6.34
2023-04-09T03:20:24.068Z,6.41
2023-04-09T03:23:27.629Z,6.40
2023-04-09T03:26:36.238Z,6.34
2023-04-09T03:29:39.721Z,6.35
2023-04-09T03:32:44.665Z,6.36
2023-04-09T03:35:48.260Z,6.36
2023-04-09T03:38:52.219Z,6.40
2023-04-09T03:41:57.903Z,6.33
2023-04-09T03:45:01.490Z,6.38
2023-04-09T03:48:06.662Z,6.34
2023-04-09T03:51:13.927Z,6.32
2023-04-09T03:54:17.445Z,6.35
2023-04-09T03:57:21.109Z,6.37
2023-04-09T04:00:24.635Z,6.38
2023-04-09T04:03:29.963Z,6.39
2023-04-09T04:06:36.046Z,6.38
2023-04-09T04:09:39.524Z,6.34
2023-04-09T04:12:42.986Z,6.35
2023-04-09T04:15:46.525Z,6.39
2023-04-09T04:18:51.765Z,6.31
2023-04-09T04:21:55.705Z,6.26
2023-04-09T04:24:59.412Z,6.26
2023-04-09T04:28:02.901Z,6.26
2023-04-09T04:31:10.944Z,6.27
2023-04-09T04:34:15.907Z,6.23
2023-04-09T04:37:19.555Z,6.18
2023-04-09T04:40:23.386Z,6.13
2023-04-09T04:43:26.826Z,6.14
2023-04-09T04:46:30.426Z,6.12
2023-04-09T04:49:35.271Z,6.09
2023-04-09T04:52:40.493Z,6.07
2023-04-09T04:55:44.135Z,6.06
2023-04-09T04:58:50.917Z,6.01
2023-04-09T05:01:54.650Z,5.96
2023-04-09T05:04:59.614Z,5.95
2023-04-09T05:08:03.122Z,5.89
2023-04-09T05:11:06.841Z,5.87
2023-04-09T05:14:10.450Z,5.91
2023-04-09T05:17:14.036Z,5.88
2023-04-09T05:20:18.921Z,5.91
2023-04-09T05:23:22.722Z,5.92
2023-04-09T05:26:27.157Z,5.99
2023-04-09T05:29:30.793Z,6.19
2023-04-09T05:32:34.392Z,6.05
2023-04-09T05:35:41.777Z,6.13
2023-04-09T05:38:45.973Z,6.06
2023-04-09T05:41:50.124Z,6.11
2023-04-09T05:44:53.746Z,6.20
2023-04-09T05:47:57.592Z,6.30
2023-04-09T05:51:02.558Z,6.26
2023-04-09T05:54:06.154Z,6.33
2023-04-09T05:57:09.880Z,6.39
2023-04-09T06:00:15.208Z,6.35
2023-04-09T06:03:18.887Z,6.38
2023-04-09T06:06:23.973Z,6.50
2023-04-09T06:09:27.966Z,6.62
2023-04-09T06:12:31.628Z,6.73
2023-04-09T06:15:35.184Z,6.96
2023-04-09T06:18:39.105Z,6.83
2023-04-09T06:21:44.061Z,6.92
2023-04-09T06:24:47.792Z,7.12
2023-04-09T06:27:51.621Z,6.95
2023-04-09T06:30:55.560Z,7.21
2023-04-09T06:33:59.037Z,7.18
2023-04-09T06:37:04.095Z,7.02
2023-04-09T06:40:09.403Z,7.03
2023-04-09T06:43:13.165Z,7.26
2023-04-09T06:46:20.152Z,7.36
2023-04-09T06:49:24.148Z,7.27
2023-04-09T06:52:29.114Z,7.38
2023-04-09T06:55:32.667Z,7.74
2023-04-09T06:58:36.745Z,7.96
2023-04-09T07:01:40.965Z,8.19
2023-04-09T07:04:44.673Z,7.82
2023-04-09T07:07:49.765Z,8.03
2023-04-09T07:10:53.834Z,7.80
2023-04-09T07:13:57.502Z,7.76
2023-04-09T07:17:01.008Z,7.54
2023-04-09T07:20:05.094Z,7.72
2023-04-09T07:23:16.665Z,7.72
2023-04-09T07:26:20.490Z,7.77
2023-04-09T07:29:24.329Z,7.85
2023-04-09T07:32:29.218Z,8.32
2023-04-09T07:35:34.781Z,8.67
2023-04-09T07:38:39.828Z,8.51
2023-04-09T07:41:43.764Z,8.18
2023-04-09T07:44:48.598Z,8.27
2023-04-09T07:47:52.608Z,8.36
2023-04-09T07:50:56.350Z,8.71
2023-04-09T07:54:01.326Z,8.39
2023-04-09T07:57:05.097Z,8.23
2023-04-09T08:00:10.479Z,8.11
2023-04-09T08:03:14.389Z,8.25
2023-04-09T08:06:18.349Z,8.68
2023-04-09T08:09:23.422Z,8.54
2023-04-09T08:12:27.180Z,8.23
2023-04-09T08:15:30.787Z,8.26
2023-04-09T08:18:34.258Z,8.31
2023-04-09T08:21:40.472Z,8.67
2023-04-09T08:24:45.596Z,8.64
2023-04-09T08:27:49.185Z,8.48
2023-04-09T08:30:52.733Z,8.72
2023-04-09T08:33:56.514Z,9.06
2023-04-09T08:37:00.451Z,9.49
2023-04-09T08:40:06.213Z,10.16
2023-04-09T08:43:15.770Z,9.96
2023-04-09T08:46:20.585Z,10.27
2023-04-09T08:49:24.385Z,10.28
2023-04-09T08:52:34.867Z,10.43
2023-04-09T08:55:39.772Z,9.36
2023-04-09T08:58:45.995Z,9.75
2023-04-09T09:01:54.326Z,9.96
2023-04-09T09:05:00.979Z,9.65
2023-04-09T09:08:04.643Z,9.95
2023-04-09T09:11:09.585Z,10.22
2023-04-09T09:14:15.610Z,9.75
2023-04-09T09:17:20.432Z,10.45
2023-04-09T09:20:25.661Z,10.73
2023-04-09T09:23:37.543Z,10.16
2023-04-09T09:26:43.763Z,10.99
2023-04-09T09:29:47.377Z,10.04
2023-04-09T09:32:54.966Z,10.20
2023-04-09T09:35:58.716Z,10.67
2023-04-09T09:39:09.903Z,10.30
2023-04-09T09:42:14.780Z,11.04
2023-04-09T09:45:38.421Z,11.13
2023-04-09T09:48:43.482Z,10.81
2023-04-09T09:51:47.081Z,11.06
2023-04-09T09:54:54.205Z,11.01
2023-04-09T09:58:03.668Z,10.94
2023-04-09T10:01:12.011Z,10.80
2023-04-09T10:04:17.602Z,11.04
2023-04-09T10:07:24.094Z,11.08
2023-04-09T10:10:28.942Z,11.63
2023-04-09T10:13:38.896Z,11.18
2023-04-09T10:16:43.636Z,11.45
2023-04-09T10:20:07.533Z,11.43
2023-04-09T10:23:22.455Z,11.72
2023-04-09T10:26:30.897Z,11.35
2023-04-09T10:29:35.997Z,11.47
2023-04-09T10:32:40.036Z,11.81
2023-04-09T10:35:44.323Z,10.96
2023-04-09T10:38:48.799Z,11.25
2023-04-09T10:41:54.723Z,11.37
2023-04-09T10:48:26.124Z,11.56
2023-04-09T10:51:29.961Z,11.28
2023-04-09T10:54:46.298Z,11.65
2023-04-09T10:57:50.091Z,11.78
2023-04-09T11:00:57.043Z,11.65
2023-04-09T11:04:17.667Z,11.74
2023-04-09T11:07:24.869Z,11.93
2023-04-09T11:10:28.500Z,12.01
2023-04-09T11:13:34.326Z,12.03
2023-04-09T11:16:39.545Z,11.79
2023-04-09T11:19:43.337Z,12.22
2023-04-09T11:22:47.112Z,11.82
2023-04-09T11:25:52.055Z,12.43
2023-04-09T11:28:59.186Z,12.15
2023-04-09T11:32:05.315Z,12.33
2023-04-09T11:35:14.347Z,12.11
2023-04-09T11:38:18.020Z,11.71
2023-04-09T11:41:34.340Z,11.91
2023-04-09T11:44:37.902Z,11.67
2023-04-09T11:47:44.992Z,11.88
2023-04-09T11:50:49.250Z,12.11
2023-04-09T11:53:52.858Z,12.05
2023-04-09T11:56:57.469Z,12.07
2023-04-09T12:00:03.104Z,12.25
2023-04-09T12:03:11.970Z,12.41
2023-04-09T12:06:15.812Z,12.82
2023-04-09T12:09:19.384Z,12.43
2023-04-09T12:12:25.798Z,12.30
2023-04-09T12:15:34.550Z,11.97
2023-04-09T12:18:40.082Z,12.39
2023-04-09T12:21:48.165Z,12.53
2023-04-09T12:24:51.814Z,12.45
2023-04-09T12:27:56.955Z,12.39
2023-04-09T12:31:00.751Z,12.55
2023-04-09T12:34:07.196Z,12.53
2023-04-09T12:37:10.754Z,12.63
2023-04-09T12:40:14.904Z,12.56
2023-04-09T12:43:18.461Z,12.53
2023-04-09T12:46:22.319Z,12.83
2023-04-09T12:49:27.317Z,12.79
2023-04-09T12:52:30.886Z,12.84
2023-04-09T12:55:34.695Z,12.89
2023-04-09T12:58:38.638Z,13.18
2023-04-09T13:01:43.588Z,13.26
2023-04-09T13:04:48.733Z,13.39
2023-04-09T13:07:52.678Z,13.52
2023-04-09T13:10:56.482Z,13.48
2023-04-09T13:14:00.204Z,12.74
2023-04-09T13:17:03.947Z,13.26
2023-04-09T13:20:10.716Z,13.64
2023-04-09T13:23:14.442Z,13.38
2023-04-09T13:26:18.077Z,13.16
2023-04-09T13:29:22.078Z,13.21
2023-04-09T13:32:27.359Z,13.56
2023-04-09T13:35:32.528Z,13.35
2023-04-09T13:38:36.414Z,13.51
2023-04-09T13:41:40.547Z,12.96
2023-04-09T13:44:46.251Z,12.97
2023-04-09T13:47:50.515Z,13.36
2023-04-09T13:50:55.525Z,13.43
2023-04-09T13:53:59.169Z,13.79
2023-04-09T13:57:03.579Z,13.35
2023-04-09T14:00:09.424Z,12.85
2023-04-09T14:03:14.364Z,12.99
2023-04-09T14:06:19.694Z,13.62
2023-04-09T14:09:23.245Z,13.47
2023-04-09T14:12:26.756Z,13.03
2023-04-09T14:15:30.636Z,13.14
2023-04-09T14:18:34.270Z,13.51
2023-04-09T14:21:40.579Z,13.85
2023-04-09T14:24:44.332Z,13.94
2023-04-09T14:27:47.827Z,13.20
2023-04-09T14:30:51.559Z,13.35
2023-04-09T14:33:55.056Z,13.34
2023-04-09T14:37:00.061Z,13.57
2023-04-09T14:40:03.629Z,13.18
2023-04-09T14:43:07.185Z,12.90
2023-04-09T14:46:12.061Z,12.86
2023-04-09T14:49:15.736Z,13.16
2023-04-09T14:52:20.777Z,12.83
2023-04-09T14:55:25.831Z,13.12
2023-04-09T14:58:29.458Z,13.21
2023-04-09T15:01:33.341Z,13.51
2023-04-09T15:04:37.121Z,13.22
2023-04-09T15:07:42.131Z,13.73
2023-04-09T15:10:45.705Z,13.50
2023-04-09T15:13:49.699Z,13.84
2023-04-09T15:16:55.896Z,13.47
2023-04-09T15:20:00.611Z,13.42
2023-04-09T15:23:05.571Z,13.17
2023-04-09T15:26:09.203Z,13.07
2023-04-09T15:29:12.805Z,13.24
2023-04-09T15:32:16.460Z,13.57
2023-04-09T15:35:25.092Z,13.74
2023-04-09T15:38:30.137Z,13.67
2023-04-09T15:41:33.893Z,14.02
2023-04-09T15:44:39.049Z,14.13
2023-04-09T15:47:42.751Z,13.49
2023-04-09T15:50:46.755Z,13.53
2023-04-09T15:53:51.721Z,13.49
2023-04-09T15:56:55.376Z,13.72
2023-04-09T15:59:58.953Z,13.43
2023-04-09T16:03:02.579Z,12.97
2023-04-09T16:06:07.488Z,13.15
2023-04-09T16:09:12.822Z,12.75
2023-04-09T16:12:16.347Z,12.97
2023-04-09T16:15:20.256Z,13.26
2023-04-09T16:18:24.401Z,12.89
2023-04-09T16:21:29.091Z,12.83
2023-04-09T16:24:34.036Z,13.09
2023-04-09T16:27:37.623Z,12.51
2023-04-09T16:30:41.449Z,12.15
2023-04-09T16:33:44.983Z,12.00
2023-04-09T16:36:50.664Z,11.77
2023-04-09T16:39:56.627Z,11.59
2023-04-09T16:43:00.492Z,11.36
2023-04-09T16:46:06.523Z,11.30
2023-04-09T16:49:10.144Z,11.06
2023-04-09T16:52:13.730Z,11.17
2023-04-09T16:55:18.803Z,11.20
2023-04-09T16:58:22.449Z,11.24
2023-04-09T17:01:26.532Z,11.23
2023-04-09T17:04:31.752Z,11.10
2023-04-09T17:07:35.591Z,11.10
2023-04-09T17:10:40.634Z,11.01
2023-04-09T17:13:44.989Z,10.84
2023-04-09T17:16:48.714Z,10.81
2023-04-09T17:19:53.474Z,10.74
2023-04-09T17:22:57.575Z,10.55
2023-04-09T17:26:03.446Z,10.51
2023-04-09T17:29:07.197Z,10.49
2023-04-09T17:32:11.012Z,10.32
2023-04-09T17:35:14.627Z,10.16
2023-04-09T17:38:21.576Z,10.22
2023-04-09T17:41:27.802Z,10.10
2023-04-09T17:44:35.302Z,9.98
2023-04-09T17:47:39.834Z,9.74
2023-04-09T17:50:43.531Z,9.71
2023-04-09T17:53:47.569Z,9.73
2023-04-09T17:56:53.250Z,9.54
2023-04-09T17:59:56.767Z,9.45
2023-04-09T18:03:00.854Z,9.41
2023-04-09T18:06:04.863Z,9.35
2023-04-09T18:09:08.612Z,9.33
2023-04-09T18:12:13.644Z,9.31
2023-04-09T18:15:18.772Z,9.34
2023-04-09T18:18:22.418Z,9.21
2023-04-09T18:21:27.128Z,9.09
2023-04-09T18:24:30.882Z,9.08
2023-04-09T18:27:36.009Z,9.06
2023-04-09T18:30:39.846Z,8.93
2023-04-09T18:33:43.598Z,8.87
2023-04-09T18:36:47.387Z,8.80
2023-04-09T18:39:50.952Z,8.69
2023-04-09T18:42:56.856Z,8.64
2023-04-09T18:46:00.438Z,8.58
2023-04-09T18:49:04.036Z,8.53
2023-04-09T18:52:09.200Z,8.48
2023-04-09T18:55:13.764Z,8.42
2023-04-09T18:58:18.598Z,8.35
2023-04-09T19:01:23.131Z,8.25
2023-04-09T19:04:28.298Z,8.18
2023-04-09T19:07:32.070Z,8.06
2023-04-09T19:10:36.120Z,8.03
2023-04-09T19:13:41.669Z,7.95
2023-04-09T19:16:45.379Z,7.84
2023-04-09T19:19:49.087Z,7.80
2023-04-09T19:22:54.590Z,7.78
2023-04-09T19:25:58.136Z,7.71
2023-04-09T19:29:03.759Z,7.67
2023-04-09T19:32:09.296Z,7.62
2023-04-09T19:35:12.985Z,7.57
2023-04-09T19:38:17.114Z,7.50
2023-04-09T19:41:20.753Z,7.44
2023-04-09T19:44:25.827Z,7.36
2023-04-09T19:47:29.668Z,7.33
2023-04-09T19:50:37.858Z,7.27
2023-04-09T19:53:43.518Z,7.26
2023-04-09T19:56:47.761Z,7.22
2023-04-09T19:59:52.643Z,7.17
2023-04-09T20:02:57.157Z,7.09
2023-04-09T20:06:00.997Z,7.08
2023-04-09T20:09:04.669Z,7.04
2023-04-09T20:12:09.592Z,6.93
2023-04-09T20:15:15.014Z,6.90
2023-04-09T20:18:18.510Z,6.86
2023-04-09T20:21:22.086Z,6.82
2023-04-09T20:24:27.003Z,6.80
2023-04-09T20:27:31.417Z,6.70
2023-04-09T20:30:36.906Z,6.70
2023-04-09T20:33:40.792Z,6.61
2023-04-09T20:36:44.407Z,6.56
2023-04-09T20:39:47.926Z,6.50
2023-04-09T20:42:52.561Z,6.50
2023-04-09T20:45:57.901Z,6.47
2023-04-09T20:49:01.645Z,6.41
2023-04-09T20:52:05.982Z,6.42
2023-04-09T20:55:10.968Z,6.39
2023-04-09T20:58:14.918Z,6.33
2023-04-09T21:01:20.147Z,6.23
2023-04-09T21:04:24.747Z,6.20
2023-04-09T21:07:28.410Z,6.18
2023-04-09T21:10:32.012Z,6.17
2023-04-09T21:13:50.442Z,6.16
2023-04-09T21:16:59.337Z,6.12
2023-04-09T21:20:02.927Z,6.09
2023-04-09T21:23:07.445Z,6.07
2023-04-09T21:26:11.832Z,6.03
2023-04-09T21:29:15.763Z,6.00
2023-04-09T21:32:20.859Z,5.96
2023-04-09T21:35:24.470Z,5.90
2023-04-09T21:38:27.967Z,5.84
2023-04-09T21:41:31.521Z,5.85
2023-04-09T21:44:35.268Z,5.86
2023-04-09T21:47:40.694Z,5.79
2023-04-09T21:50:44.250Z,5.74
2023-04-09T21:53:48.224Z,5.74
2023-04-09T21:56:51.726Z,5.71
2023-04-09T21:59:55.352Z,5.71
2023-04-09T22:03:01.825Z,5.69
2023-04-09T22:06:06.241Z,5.70
2023-04-09T22:09:09.689Z,5.70
2023-04-09T22:12:13.206Z,5.65
2023-04-09T22:15:17.813Z,5.60
2023-04-09T22:18:22.662Z,5.59
2023-04-09T22:21:26.561Z,5.52
2023-04-09T22:24:33.914Z,5.53
2023-04-09T22:27:37.875Z,5.50
2023-04-09T22:30:41.328Z,5.52
2023-04-09T22:33:46.218Z,5.49
2023-04-09T22:36:49.980Z,5.48
2023-04-09T22:39:53.461Z,5.48
2023-04-09T22:42:57.201Z,5.44
2023-04-09T22:46:09.494Z,5.45
2023-04-09T22:49:14.513Z,5.37
2023-04-09T22:52:18.098Z,5.41
2023-04-09T22:55:21.857Z,5.38
2023-04-09T22:58:25.365Z,5.39
2023-04-09T23:01:29.488Z,5.42
2023-04-09T23:04:35.019Z,5.42
2023-04-09T23:07:38.641Z,5.46
2023-04-09T23:10:42.182Z,5.47
2023-04-09T23:13:45.792Z,5.46
2023-04-09T23:16:49.386Z,5.46
2023-04-09T23:19:54.424Z,5.50
2023-04-09T23:22:57.993Z,5.52
2023-04-09T23:26:01.938Z,5.52
2023-04-09T23:29:05.441Z,5.52
2023-04-09T23:32:08.931Z,5.45
2023-04-09T23:35:13.950Z,5.42
2023-04-09T23:38:17.637Z,5.46
2023-04-09T23:41:21.333Z,5.45
2023-04-09T23:44:24.960Z,5.36
2023-04-09T23:47:28.497Z,5.32
2023-04-09T23:50:33.524Z,5.36
2023-04-09T23:53:37.042Z,5.30
2023-04-09T23:56:40.545Z,5.27
2023-04-09T23:59:44.043Z,5.26
